sensor_id;sensor_type;location;lat;lon;timestamp;P1;durP1;ratioP1;P2;durP2;ratioP2
62268;SDS011;56517;51.634;5.566;2023-11-19T00:00:57;20.48;;;14.38;;
62268;SDS011;56517;51.634;5.566;2023-11-19T00:02:18;17.90;;;11.90;;
62268;SDS011;56517;51.634;5.566;2023-11-19T00:03:39;23.17;;;13.13;;
62268;SDS011;56517;51.634;5.566;2023-11-19T00:05:00;16.35;;;13.50;;
62268;SDS011;56517;51.634;5.566;2023-11-19T00:06:21;21.02;;;13.23;;
62268;SDS011;56517;51.634;5.566;2023-11-19T00:07:41;17.55;;;13.80;;
62268;SDS011;56517;51.634;5.566;2023-11-19T00:09:02;22.77;;;13.85;;
62268;SDS011;56517;51.634;5.566;2023-11-19T00:10:24;23.02;;;12.93;;
62268;SDS011;56517;51.634;5.566;2023-11-19T00:11:45;22.80;;;13.27;;
62268;SDS011;56517;51.634;5.566;2023-11-19T00:13:06;19.25;;;13.68;;
62268;SDS011;56517;51.634;5.566;2023-11-19T00:14:27;20.17;;;13.38;;
62268;SDS011;56517;51.634;5.566;2023-11-19T00:15:49;14.77;;;11.70;;
62268;SDS011;56517;51.634;5.566;2023-11-19T00:17:10;18.90;;;13.45;;
62268;SDS011;56517;51.634;5.566;2023-11-19T00:18:31;22.02;;;13.00;;
62268;SDS011;56517;51.634;5.566;2023-11-19T00:19:53;18.30;;;13.05;;
62268;SDS011;56517;51.634;5.566;2023-11-19T00:21:14;18.67;;;11.80;;
62268;SDS011;56517;51.634;5.566;2023-11-19T00:22:35;19.27;;;13.45;;
62268;SDS011;56517;51.634;5.566;2023-11-19T00:23:56;20.35;;;15.23;;
62268;SDS011;56517;51.634;5.566;2023-11-19T00:25:18;19.48;;;14.40;;
62268;SDS011;56517;51.634;5.566;2023-11-19T00:26:39;24.08;;;13.13;;
62268;SDS011;56517;51.634;5.566;2023-11-19T00:28:00;21.27;;;13.50;;
62268;SDS011;56517;51.634;5.566;2023-11-19T00:29:21;17.80;;;12.07;;
62268;SDS011;56517;51.634;5.566;2023-11-19T00:30:42;20.02;;;11.95;;
62268;SDS011;56517;51.634;5.566;2023-11-19T00:32:03;18.05;;;11.70;;
62268;SDS011;56517;51.634;5.566;2023-11-19T00:33:26;20.52;;;11.80;;
62268;SDS011;56517;51.634;5.566;2023-11-19T00:34:46;18.67;;;11.35;;
62268;SDS011;56517;51.634;5.566;2023-11-19T00:36:08;18.10;;;10.90;;
62268;SDS011;56517;51.634;5.566;2023-11-19T00:37:29;17.50;;;11.65;;
62268;SDS011;56517;51.634;5.566;2023-11-19T00:38:50;20.52;;;11.00;;
62268;SDS011;56517;51.634;5.566;2023-11-19T00:40:13;22.13;;;12.35;;
62268;SDS011;56517;51.634;5.566;2023-11-19T00:41:36;18.25;;;11.55;;
62268;SDS011;56517;51.634;5.566;2023-11-19T00:42:57;21.02;;;10.52;;
62268;SDS011;56517;51.634;5.566;2023-11-19T00:44:18;23.73;;;12.65;;
62268;SDS011;56517;51.634;5.566;2023-11-19T00:45:40;24.77;;;12.90;;
62268;SDS011;56517;51.634;5.566;2023-11-19T00:47:01;19.85;;;12.57;;
62268;SDS011;56517;51.634;5.566;2023-11-19T00:48:22;18.33;;;12.60;;
62268;SDS011;56517;51.634;5.566;2023-11-19T00:49:43;17.80;;;11.52;;
62268;SDS011;56517;51.634;5.566;2023-11-19T00:51:04;22.83;;;12.85;;
62268;SDS011;56517;51.634;5.566;2023-11-19T00:52:25;21.58;;;12.82;;
62268;SDS011;56517;51.634;5.566;2023-11-19T00:53:46;23.03;;;12.47;;
62268;SDS011;56517;51.634;5.566;2023-11-19T00:55:07;24.17;;;12.63;;
62268;SDS011;56517;51.634;5.566;2023-11-19T00:56:28;26.77;;;12.45;;
62268;SDS011;56517;51.634;5.566;2023-11-19T00:57:49;20.10;;;12.35;;
62268;SDS011;56517;51.634;5.566;2023-11-19T00:59:10;19.90;;;10.63;;
62268;SDS011;56517;51.634;5.566;2023-11-19T01:00:31;14.25;;;11.38;;
62268;SDS011;56517;51.634;5.566;2023-11-19T01:01:53;19.02;;;10.77;;
62268;SDS011;56517;51.634;5.566;2023-11-19T01:03:14;17.60;;;11.82;;
62268;SDS011;56517;51.634;5.566;2023-11-19T01:04:36;20.17;;;10.90;;
62268;SDS011;56517;51.634;5.566;2023-11-19T01:05:56;16.25;;;9.30;;
62268;SDS011;56517;51.634;5.566;2023-11-19T01:07:19;17.45;;;10.00;;
62268;SDS011;56517;51.634;5.566;2023-11-19T01:08:40;16.85;;;9.25;;
62268;SDS011;56517;51.634;5.566;2023-11-19T01:10:00;20.40;;;10.07;;
62268;SDS011;56517;51.634;5.566;2023-11-19T01:11:22;24.23;;;10.15;;
62268;SDS011;56517;51.634;5.566;2023-11-19T01:12:43;18.58;;;9.73;;
62268;SDS011;56517;51.634;5.566;2023-11-19T01:14:04;20.00;;;9.23;;
62268;SDS011;56517;51.634;5.566;2023-11-19T01:15:25;16.00;;;9.05;;
62268;SDS011;56517;51.634;5.566;2023-11-19T01:16:45;14.90;;;8.85;;
62268;SDS011;56517;51.634;5.566;2023-11-19T01:18:06;16.50;;;9.23;;
62268;SDS011;56517;51.634;5.566;2023-11-19T01:19:29;15.95;;;10.27;;
62268;SDS011;56517;51.634;5.566;2023-11-19T01:20:50;18.98;;;9.35;;
62268;SDS011;56517;51.634;5.566;2023-11-19T01:22:11;17.23;;;9.38;;
62268;SDS011;56517;51.634;5.566;2023-11-19T01:23:32;16.73;;;9.20;;
62268;SDS011;56517;51.634;5.566;2023-11-19T01:24:55;15.73;;;9.07;;
62268;SDS011;56517;51.634;5.566;2023-11-19T01:26:16;21.70;;;10.02;;
62268;SDS011;56517;51.634;5.566;2023-11-19T01:27:37;14.63;;;8.65;;
62268;SDS011;56517;51.634;5.566;2023-11-19T01:28:59;12.77;;;8.27;;
62268;SDS011;56517;51.634;5.566;2023-11-19T01:30:20;18.20;;;8.65;;
62268;SDS011;56517;51.634;5.566;2023-11-19T01:31:45;12.57;;;8.18;;
62268;SDS011;56517;51.634;5.566;2023-11-19T01:33:06;25.08;;;9.82;;
62268;SDS011;56517;51.634;5.566;2023-11-19T01:34:28;17.17;;;7.82;;
62268;SDS011;56517;51.634;5.566;2023-11-19T01:35:49;19.67;;;7.68;;
62268;SDS011;56517;51.634;5.566;2023-11-19T01:37:10;17.60;;;8.93;;
62268;SDS011;56517;51.634;5.566;2023-11-19T01:38:33;17.98;;;8.20;;
62268;SDS011;56517;51.634;5.566;2023-11-19T01:39:55;22.00;;;8.52;;
62268;SDS011;56517;51.634;5.566;2023-11-19T01:41:15;20.20;;;8.35;;
62268;SDS011;56517;51.634;5.566;2023-11-19T01:42:37;18.77;;;8.93;;
62268;SDS011;56517;51.634;5.566;2023-11-19T01:45:21;20.38;;;9.77;;
62268;SDS011;56517;51.634;5.566;2023-11-19T01:46:43;17.30;;;8.35;;
62268;SDS011;56517;51.634;5.566;2023-11-19T01:49:25;19.25;;;8.77;;
62268;SDS011;56517;51.634;5.566;2023-11-19T01:50:46;23.73;;;9.00;;
62268;SDS011;56517;51.634;5.566;2023-11-19T01:52:07;18.13;;;8.80;;
62268;SDS011;56517;51.634;5.566;2023-11-19T01:53:29;17.70;;;8.73;;
62268;SDS011;56517;51.634;5.566;2023-11-19T01:54:50;22.73;;;9.55;;
62268;SDS011;56517;51.634;5.566;2023-11-19T01:56:13;23.90;;;9.23;;
62268;SDS011;56517;51.634;5.566;2023-11-19T01:57:35;16.83;;;8.98;;
62268;SDS011;56517;51.634;5.566;2023-11-19T01:58:58;18.60;;;9.38;;
62268;SDS011;56517;51.634;5.566;2023-11-19T02:00:19;25.30;;;8.95;;
62268;SDS011;56517;51.634;5.566;2023-11-19T02:01:40;23.05;;;8.57;;
62268;SDS011;56517;51.634;5.566;2023-11-19T02:03:01;15.77;;;7.65;;
62268;SDS011;56517;51.634;5.566;2023-11-19T02:04:24;18.02;;;8.77;;
62268;SDS011;56517;51.634;5.566;2023-11-19T02:05:45;21.67;;;8.40;;
62268;SDS011;56517;51.634;5.566;2023-11-19T02:07:09;22.85;;;8.57;;
62268;SDS011;56517;51.634;5.566;2023-11-19T02:09:52;28.35;;;9.52;;
62268;SDS011;56517;51.634;5.566;2023-11-19T02:11:13;24.05;;;8.50;;
62268;SDS011;56517;51.634;5.566;2023-11-19T02:12:34;26.10;;;8.02;;
62268;SDS011;56517;51.634;5.566;2023-11-19T02:13:56;18.63;;;8.90;;
62268;SDS011;56517;51.634;5.566;2023-11-19T02:15:17;30.73;;;8.18;;
62268;SDS011;56517;51.634;5.566;2023-11-19T02:16:42;20.42;;;8.35;;
62268;SDS011;56517;51.634;5.566;2023-11-19T02:19:42;15.98;;;8.35;;
62268;SDS011;56517;51.634;5.566;2023-11-19T02:21:03;27.33;;;8.93;;
62268;SDS011;56517;51.634;5.566;2023-11-19T02:23:46;25.77;;;9.77;;
62268;SDS011;56517;51.634;5.566;2023-11-19T02:25:07;19.63;;;8.70;;
62268;SDS011;56517;51.634;5.566;2023-11-19T02:26:32;30.55;;;9.25;;
62268;SDS011;56517;51.634;5.566;2023-11-19T02:27:58;19.15;;;9.38;;
62268;SDS011;56517;51.634;5.566;2023-11-19T02:29:20;20.45;;;8.60;;
62268;SDS011;56517;51.634;5.566;2023-11-19T02:30:41;20.17;;;8.60;;
62268;SDS011;56517;51.634;5.566;2023-11-19T02:32:02;19.05;;;8.10;;
62268;SDS011;56517;51.634;5.566;2023-11-19T02:33:23;25.42;;;8.73;;
62268;SDS011;56517;51.634;5.566;2023-11-19T02:34:45;15.68;;;7.82;;
62268;SDS011;56517;51.634;5.566;2023-11-19T02:36:06;21.80;;;8.88;;
62268;SDS011;56517;51.634;5.566;2023-11-19T02:37:28;22.05;;;7.97;;
62268;SDS011;56517;51.634;5.566;2023-11-19T02:38:49;41.10;;;13.38;;
62268;SDS011;56517;51.634;5.566;2023-11-19T02:40:10;24.97;;;7.50;;
62268;SDS011;56517;51.634;5.566;2023-11-19T02:41:31;27.00;;;8.93;;
62268;SDS011;56517;51.634;5.566;2023-11-19T02:42:52;20.92;;;8.98;;
62268;SDS011;56517;51.634;5.566;2023-11-19T02:44:13;20.10;;;8.02;;
62268;SDS011;56517;51.634;5.566;2023-11-19T02:45:34;20.70;;;8.10;;
62268;SDS011;56517;51.634;5.566;2023-11-19T02:46:56;18.58;;;8.18;;
62268;SDS011;56517;51.634;5.566;2023-11-19T02:48:20;21.13;;;8.07;;
62268;SDS011;56517;51.634;5.566;2023-11-19T02:49:41;29.13;;;9.15;;
62268;SDS011;56517;51.634;5.566;2023-11-19T02:51:04;24.35;;;8.13;;
62268;SDS011;56517;51.634;5.566;2023-11-19T02:52:25;30.17;;;7.88;;
62268;SDS011;56517;51.634;5.566;2023-11-19T02:53:46;18.73;;;8.77;;
62268;SDS011;56517;51.634;5.566;2023-11-19T02:55:09;23.92;;;8.20;;
62268;SDS011;56517;51.634;5.566;2023-11-19T02:56:33;28.50;;;8.30;;
62268;SDS011;56517;51.634;5.566;2023-11-19T02:57:57;25.80;;;8.52;;
62268;SDS011;56517;51.634;5.566;2023-11-19T02:59:20;27.70;;;9.18;;
62268;SDS011;56517;51.634;5.566;2023-11-19T03:00:48;35.58;;;9.07;;
62268;SDS011;56517;51.634;5.566;2023-11-19T03:02:17;25.13;;;9.00;;
62268;SDS011;56517;51.634;5.566;2023-11-19T03:03:38;19.33;;;6.63;;
62268;SDS011;56517;51.634;5.566;2023-11-19T03:05:01;24.30;;;9.05;;
62268;SDS011;56517;51.634;5.566;2023-11-19T03:06:22;23.35;;;8.38;;
62268;SDS011;56517;51.634;5.566;2023-11-19T03:07:43;22.02;;;8.05;;
62268;SDS011;56517;51.634;5.566;2023-11-19T03:09:04;19.88;;;7.75;;
62268;SDS011;56517;51.634;5.566;2023-11-19T03:10:30;30.20;;;9.57;;
62268;SDS011;56517;51.634;5.566;2023-11-19T03:11:51;20.17;;;8.48;;
62268;SDS011;56517;51.634;5.566;2023-11-19T03:13:13;31.85;;;9.00;;
62268;SDS011;56517;51.634;5.566;2023-11-19T03:14:37;36.28;;;9.30;;
62268;SDS011;56517;51.634;5.566;2023-11-19T03:15:58;30.05;;;8.32;;
62268;SDS011;56517;51.634;5.566;2023-11-19T03:17:19;30.35;;;9.27;;
62268;SDS011;56517;51.634;5.566;2023-11-19T03:18:40;19.23;;;7.30;;
62268;SDS011;56517;51.634;5.566;2023-11-19T03:20:01;25.67;;;8.20;;
62268;SDS011;56517;51.634;5.566;2023-11-19T03:21:28;25.90;;;8.05;;
62268;SDS011;56517;51.634;5.566;2023-11-19T03:22:49;29.35;;;7.47;;
62268;SDS011;56517;51.634;5.566;2023-11-19T03:24:15;25.33;;;7.93;;
62268;SDS011;56517;51.634;5.566;2023-11-19T03:25:36;28.38;;;8.40;;
62268;SDS011;56517;51.634;5.566;2023-11-19T03:26:57;30.55;;;8.18;;
62268;SDS011;56517;51.634;5.566;2023-11-19T03:28:18;23.20;;;8.40;;
62268;SDS011;56517;51.634;5.566;2023-11-19T03:29:39;29.92;;;8.80;;
62268;SDS011;56517;51.634;5.566;2023-11-19T03:31:01;34.45;;;9.90;;
62268;SDS011;56517;51.634;5.566;2023-11-19T03:32:21;34.90;;;8.88;;
62268;SDS011;56517;51.634;5.566;2023-11-19T03:33:42;35.67;;;8.40;;
62268;SDS011;56517;51.634;5.566;2023-11-19T03:35:03;34.20;;;10.10;;
62268;SDS011;56517;51.634;5.566;2023-11-19T03:36:32;33.83;;;8.63;;
62268;SDS011;56517;51.634;5.566;2023-11-19T03:37:54;30.30;;;8.70;;
62268;SDS011;56517;51.634;5.566;2023-11-19T03:39:15;32.60;;;9.35;;
62268;SDS011;56517;51.634;5.566;2023-11-19T03:40:36;33.85;;;8.55;;
62268;SDS011;56517;51.634;5.566;2023-11-19T03:41:57;32.38;;;9.60;;
62268;SDS011;56517;51.634;5.566;2023-11-19T03:43:18;23.10;;;8.32;;
62268;SDS011;56517;51.634;5.566;2023-11-19T03:44:39;34.10;;;9.25;;
62268;SDS011;56517;51.634;5.566;2023-11-19T03:46:00;38.58;;;9.32;;
62268;SDS011;56517;51.634;5.566;2023-11-19T03:47:21;28.38;;;9.57;;
62268;SDS011;56517;51.634;5.566;2023-11-19T03:48:42;26.05;;;8.48;;
62268;SDS011;56517;51.634;5.566;2023-11-19T03:50:04;32.80;;;10.25;;
62268;SDS011;56517;51.634;5.566;2023-11-19T03:51:25;21.55;;;8.55;;
62268;SDS011;56517;51.634;5.566;2023-11-19T03:52:46;25.48;;;8.00;;
62268;SDS011;56517;51.634;5.566;2023-11-19T03:54:07;32.83;;;8.48;;
62268;SDS011;56517;51.634;5.566;2023-11-19T03:55:28;31.90;;;8.18;;
62268;SDS011;56517;51.634;5.566;2023-11-19T03:56:50;34.00;;;7.85;;
62268;SDS011;56517;51.634;5.566;2023-11-19T03:58:11;37.40;;;10.15;;
62268;SDS011;56517;51.634;5.566;2023-11-19T03:59:32;31.52;;;8.98;;
62268;SDS011;56517;51.634;5.566;2023-11-19T04:00:54;33.63;;;9.50;;
62268;SDS011;56517;51.634;5.566;2023-11-19T04:02:15;34.47;;;9.50;;
62268;SDS011;56517;51.634;5.566;2023-11-19T04:03:35;27.83;;;7.78;;
62268;SDS011;56517;51.634;5.566;2023-11-19T04:04:56;26.35;;;8.02;;
62268;SDS011;56517;51.634;5.566;2023-11-19T04:06:17;33.78;;;8.45;;
62268;SDS011;56517;51.634;5.566;2023-11-19T04:07:38;24.63;;;7.97;;
62268;SDS011;56517;51.634;5.566;2023-11-19T04:08:59;32.40;;;9.88;;
62268;SDS011;56517;51.634;5.566;2023-11-19T04:10:20;38.83;;;9.13;;
62268;SDS011;56517;51.634;5.566;2023-11-19T04:11:43;33.88;;;9.07;;
62268;SDS011;56517;51.634;5.566;2023-11-19T04:13:04;32.63;;;10.23;;
62268;SDS011;56517;51.634;5.566;2023-11-19T04:14:25;37.47;;;9.82;;
62268;SDS011;56517;51.634;5.566;2023-11-19T04:15:46;28.08;;;8.40;;
62268;SDS011;56517;51.634;5.566;2023-11-19T04:17:06;35.35;;;9.38;;
62268;SDS011;56517;51.634;5.566;2023-11-19T04:18:27;34.10;;;8.77;;
62268;SDS011;56517;51.634;5.566;2023-11-19T04:19:48;28.13;;;8.70;;
62268;SDS011;56517;51.634;5.566;2023-11-19T04:21:09;35.83;;;9.60;;
62268;SDS011;56517;51.634;5.566;2023-11-19T04:22:30;36.60;;;10.25;;
62268;SDS011;56517;51.634;5.566;2023-11-19T04:23:51;35.08;;;9.85;;
62268;SDS011;56517;51.634;5.566;2023-11-19T04:25:12;26.88;;;8.77;;
62268;SDS011;56517;51.634;5.566;2023-11-19T04:26:34;37.28;;;10.27;;
62268;SDS011;56517;51.634;5.566;2023-11-19T04:27:55;30.17;;;8.52;;
62268;SDS011;56517;51.634;5.566;2023-11-19T04:29:16;35.75;;;9.10;;
62268;SDS011;56517;51.634;5.566;2023-11-19T04:30:40;33.15;;;9.98;;
62268;SDS011;56517;51.634;5.566;2023-11-19T04:32:01;30.25;;;9.68;;
62268;SDS011;56517;51.634;5.566;2023-11-19T04:33:22;29.88;;;8.50;;
62268;SDS011;56517;51.634;5.566;2023-11-19T04:34:42;45.55;;;9.90;;
62268;SDS011;56517;51.634;5.566;2023-11-19T04:36:03;35.13;;;9.40;;
62268;SDS011;56517;51.634;5.566;2023-11-19T04:37:24;36.05;;;9.02;;
62268;SDS011;56517;51.634;5.566;2023-11-19T04:38:45;28.02;;;8.48;;
62268;SDS011;56517;51.634;5.566;2023-11-19T04:40:06;37.30;;;9.15;;
62268;SDS011;56517;51.634;5.566;2023-11-19T04:41:27;40.40;;;9.20;;
62268;SDS011;56517;51.634;5.566;2023-11-19T04:42:48;32.75;;;11.00;;
62268;SDS011;56517;51.634;5.566;2023-11-19T04:44:09;29.13;;;9.55;;
62268;SDS011;56517;51.634;5.566;2023-11-19T04:45:30;30.90;;;9.75;;
62268;SDS011;56517;51.634;5.566;2023-11-19T04:46:52;35.90;;;9.25;;
62268;SDS011;56517;51.634;5.566;2023-11-19T04:48:13;33.70;;;8.38;;
62268;SDS011;56517;51.634;5.566;2023-11-19T04:49:34;34.30;;;8.38;;
62268;SDS011;56517;51.634;5.566;2023-11-19T04:50:55;32.97;;;9.35;;
62268;SDS011;56517;51.634;5.566;2023-11-19T04:52:16;34.80;;;8.98;;
62268;SDS011;56517;51.634;5.566;2023-11-19T04:53:37;30.58;;;8.88;;
62268;SDS011;56517;51.634;5.566;2023-11-19T04:54:57;34.63;;;11.15;;
62268;SDS011;56517;51.634;5.566;2023-11-19T04:56:18;39.83;;;9.18;;
62268;SDS011;56517;51.634;5.566;2023-11-19T04:57:40;25.40;;;8.18;;
62268;SDS011;56517;51.634;5.566;2023-11-19T04:59:01;42.75;;;9.75;;
62268;SDS011;56517;51.634;5.566;2023-11-19T05:00:22;37.90;;;8.85;;
62268;SDS011;56517;51.634;5.566;2023-11-19T05:01:46;30.58;;;9.00;;
62268;SDS011;56517;51.634;5.566;2023-11-19T05:03:07;37.83;;;8.98;;
62268;SDS011;56517;51.634;5.566;2023-11-19T05:04:28;29.95;;;9.45;;
62268;SDS011;56517;51.634;5.566;2023-11-19T05:05:49;23.98;;;8.65;;
62268;SDS011;56517;51.634;5.566;2023-11-19T05:07:10;25.60;;;8.15;;
62268;SDS011;56517;51.634;5.566;2023-11-19T05:08:31;39.28;;;10.20;;
62268;SDS011;56517;51.634;5.566;2023-11-19T05:09:52;44.33;;;10.20;;
62268;SDS011;56517;51.634;5.566;2023-11-19T05:11:13;34.65;;;8.88;;
62268;SDS011;56517;51.634;5.566;2023-11-19T05:12:38;35.08;;;8.82;;
62268;SDS011;56517;51.634;5.566;2023-11-19T05:13:59;42.38;;;10.27;;
62268;SDS011;56517;51.634;5.566;2023-11-19T05:15:20;34.92;;;9.20;;
62268;SDS011;56517;51.634;5.566;2023-11-19T05:16:41;29.20;;;9.30;;
62268;SDS011;56517;51.634;5.566;2023-11-19T05:18:03;33.17;;;9.20;;
62268;SDS011;56517;51.634;5.566;2023-11-19T05:19:25;32.70;;;8.95;;
62268;SDS011;56517;51.634;5.566;2023-11-19T05:20:46;33.75;;;8.82;;
62268;SDS011;56517;51.634;5.566;2023-11-19T05:22:07;33.67;;;9.43;;
62268;SDS011;56517;51.634;5.566;2023-11-19T05:23:28;28.10;;;9.45;;
62268;SDS011;56517;51.634;5.566;2023-11-19T05:24:49;39.70;;;11.13;;
62268;SDS011;56517;51.634;5.566;2023-11-19T05:26:16;37.22;;;9.10;;
62268;SDS011;56517;51.634;5.566;2023-11-19T05:27:37;40.40;;;8.65;;
62268;SDS011;56517;51.634;5.566;2023-11-19T05:28:59;35.28;;;10.98;;
62268;SDS011;56517;51.634;5.566;2023-11-19T05:31:41;26.50;;;7.75;;
62268;SDS011;56517;51.634;5.566;2023-11-19T05:33:02;30.98;;;8.90;;
62268;SDS011;56517;51.634;5.566;2023-11-19T05:34:23;34.13;;;8.52;;
62268;SDS011;56517;51.634;5.566;2023-11-19T05:37:06;36.45;;;9.80;;
62268;SDS011;56517;51.634;5.566;2023-11-19T05:38:27;33.45;;;8.77;;
62268;SDS011;56517;51.634;5.566;2023-11-19T05:39:49;46.28;;;10.88;;
62268;SDS011;56517;51.634;5.566;2023-11-19T05:41:10;28.02;;;7.75;;
62268;SDS011;56517;51.634;5.566;2023-11-19T05:42:31;27.90;;;8.68;;
62268;SDS011;56517;51.634;5.566;2023-11-19T05:43:52;37.22;;;10.13;;
62268;SDS011;56517;51.634;5.566;2023-11-19T05:45:13;31.52;;;9.32;;
62268;SDS011;56517;51.634;5.566;2023-11-19T05:46:33;30.85;;;8.40;;
62268;SDS011;56517;51.634;5.566;2023-11-19T05:48:00;28.52;;;8.18;;
62268;SDS011;56517;51.634;5.566;2023-11-19T05:49:21;39.25;;;11.80;;
62268;SDS011;56517;51.634;5.566;2023-11-19T05:50:42;31.77;;;8.43;;
62268;SDS011;56517;51.634;5.566;2023-11-19T05:52:03;29.70;;;8.85;;
62268;SDS011;56517;51.634;5.566;2023-11-19T05:53:28;41.10;;;9.65;;
62268;SDS011;56517;51.634;5.566;2023-11-19T05:54:49;38.67;;;8.45;;
62268;SDS011;56517;51.634;5.566;2023-11-19T05:56:12;29.05;;;8.55;;
62268;SDS011;56517;51.634;5.566;2023-11-19T05:57:34;34.88;;;8.73;;
62268;SDS011;56517;51.634;5.566;2023-11-19T05:58:55;32.20;;;8.57;;
62268;SDS011;56517;51.634;5.566;2023-11-19T06:00:17;24.25;;;8.32;;
62268;SDS011;56517;51.634;5.566;2023-11-19T06:01:38;32.38;;;9.02;;
62268;SDS011;56517;51.634;5.566;2023-11-19T06:03:01;30.92;;;8.00;;
62268;SDS011;56517;51.634;5.566;2023-11-19T06:04:22;35.83;;;8.32;;
62268;SDS011;56517;51.634;5.566;2023-11-19T06:05:46;33.28;;;10.82;;
62268;SDS011;56517;51.634;5.566;2023-11-19T06:07:07;24.75;;;7.68;;
62268;SDS011;56517;51.634;5.566;2023-11-19T06:08:28;34.53;;;10.02;;
62268;SDS011;56517;51.634;5.566;2023-11-19T06:09:50;41.20;;;9.23;;
62268;SDS011;56517;51.634;5.566;2023-11-19T06:11:11;40.17;;;8.30;;
62268;SDS011;56517;51.634;5.566;2023-11-19T06:12:38;27.02;;;7.72;;
62268;SDS011;56517;51.634;5.566;2023-11-19T06:14:01;33.60;;;9.13;;
62268;SDS011;56517;51.634;5.566;2023-11-19T06:15:23;28.88;;;9.02;;
62268;SDS011;56517;51.634;5.566;2023-11-19T06:16:44;33.63;;;8.35;;
62268;SDS011;56517;51.634;5.566;2023-11-19T06:18:05;29.70;;;8.00;;
62268;SDS011;56517;51.634;5.566;2023-11-19T06:19:26;27.65;;;7.95;;
62268;SDS011;56517;51.634;5.566;2023-11-19T06:20:47;31.73;;;8.48;;
62268;SDS011;56517;51.634;5.566;2023-11-19T06:22:08;28.73;;;9.27;;
62268;SDS011;56517;51.634;5.566;2023-11-19T06:23:29;37.22;;;9.10;;
62268;SDS011;56517;51.634;5.566;2023-11-19T06:24:50;35.25;;;9.13;;
62268;SDS011;56517;51.634;5.566;2023-11-19T06:26:11;37.13;;;8.10;;
62268;SDS011;56517;51.634;5.566;2023-11-19T06:27:32;37.20;;;10.10;;
62268;SDS011;56517;51.634;5.566;2023-11-19T06:28:52;34.97;;;8.70;;
62268;SDS011;56517;51.634;5.566;2023-11-19T06:30:13;37.67;;;9.48;;
62268;SDS011;56517;51.634;5.566;2023-11-19T06:31:34;30.52;;;9.45;;
62268;SDS011;56517;51.634;5.566;2023-11-19T06:32:55;35.45;;;9.13;;
62268;SDS011;56517;51.634;5.566;2023-11-19T06:34:16;38.85;;;9.52;;
62268;SDS011;56517;51.634;5.566;2023-11-19T06:35:37;39.30;;;9.75;;
62268;SDS011;56517;51.634;5.566;2023-11-19T06:36:58;31.48;;;9.38;;
62268;SDS011;56517;51.634;5.566;2023-11-19T06:38:19;38.55;;;9.30;;
62268;SDS011;56517;51.634;5.566;2023-11-19T06:39:40;37.55;;;10.52;;
62268;SDS011;56517;51.634;5.566;2023-11-19T06:41:01;34.45;;;9.55;;
62268;SDS011;56517;51.634;5.566;2023-11-19T06:42:22;39.55;;;9.18;;
62268;SDS011;56517;51.634;5.566;2023-11-19T06:43:43;40.40;;;9.40;;
62268;SDS011;56517;51.634;5.566;2023-11-19T06:45:04;33.83;;;8.80;;
62268;SDS011;56517;51.634;5.566;2023-11-19T06:46:25;33.08;;;9.05;;
62268;SDS011;56517;51.634;5.566;2023-11-19T06:47:46;29.85;;;8.20;;
62268;SDS011;56517;51.634;5.566;2023-11-19T06:49:07;35.05;;;9.82;;
62268;SDS011;56517;51.634;5.566;2023-11-19T06:50:31;34.67;;;9.88;;
62268;SDS011;56517;51.634;5.566;2023-11-19T06:51:52;32.35;;;9.57;;
62268;SDS011;56517;51.634;5.566;2023-11-19T06:53:13;35.38;;;10.00;;
62268;SDS011;56517;51.634;5.566;2023-11-19T06:54:33;27.85;;;7.45;;
62268;SDS011;56517;51.634;5.566;2023-11-19T06:55:54;37.60;;;10.30;;
62268;SDS011;56517;51.634;5.566;2023-11-19T06:57:15;33.28;;;8.73;;
62268;SDS011;56517;51.634;5.566;2023-11-19T06:58:36;37.95;;;9.60;;
62268;SDS011;56517;51.634;5.566;2023-11-19T06:59:57;35.17;;;10.23;;
62268;SDS011;56517;51.634;5.566;2023-11-19T07:01:19;34.10;;;8.52;;
62268;SDS011;56517;51.634;5.566;2023-11-19T07:02:40;35.00;;;8.63;;
62268;SDS011;56517;51.634;5.566;2023-11-19T07:04:01;30.30;;;8.60;;
62268;SDS011;56517;51.634;5.566;2023-11-19T07:05:28;46.58;;;9.82;;
62268;SDS011;56517;51.634;5.566;2023-11-19T07:08:12;42.00;;;9.37;;
62268;SDS011;56517;51.634;5.566;2023-11-19T07:09:33;27.73;;;8.05;;
62268;SDS011;56517;51.634;5.566;2023-11-19T07:10:54;32.78;;;8.15;;
62268;SDS011;56517;51.634;5.566;2023-11-19T07:12:15;35.80;;;9.98;;
62268;SDS011;56517;51.634;5.566;2023-11-19T07:13:36;28.35;;;8.43;;
62268;SDS011;56517;51.634;5.566;2023-11-19T07:14:57;34.42;;;8.18;;
62268;SDS011;56517;51.634;5.566;2023-11-19T07:16:18;31.23;;;7.53;;
62268;SDS011;56517;51.634;5.566;2023-11-19T07:17:39;42.13;;;8.88;;
62268;SDS011;56517;51.634;5.566;2023-11-19T07:19:01;32.65;;;9.10;;
62268;SDS011;56517;51.634;5.566;2023-11-19T07:20:22;30.67;;;7.72;;
62268;SDS011;56517;51.634;5.566;2023-11-19T07:21:43;29.15;;;7.70;;
62268;SDS011;56517;51.634;5.566;2023-11-19T07:23:07;33.30;;;8.40;;
62268;SDS011;56517;51.634;5.566;2023-11-19T07:24:27;28.45;;;8.15;;
62268;SDS011;56517;51.634;5.566;2023-11-19T07:25:49;24.77;;;9.15;;
62268;SDS011;56517;51.634;5.566;2023-11-19T07:27:12;28.80;;;8.07;;
62268;SDS011;56517;51.634;5.566;2023-11-19T07:28:34;37.28;;;8.65;;
62268;SDS011;56517;51.634;5.566;2023-11-19T07:29:55;25.08;;;8.10;;
62268;SDS011;56517;51.634;5.566;2023-11-19T07:31:16;33.72;;;8.40;;
62268;SDS011;56517;51.634;5.566;2023-11-19T07:32:39;26.42;;;8.05;;
62268;SDS011;56517;51.634;5.566;2023-11-19T07:34:00;38.08;;;8.52;;
62268;SDS011;56517;51.634;5.566;2023-11-19T07:35:21;33.67;;;10.25;;
62268;SDS011;56517;51.634;5.566;2023-11-19T07:36:42;39.22;;;8.40;;
62268;SDS011;56517;51.634;5.566;2023-11-19T07:38:03;36.00;;;9.80;;
62268;SDS011;56517;51.634;5.566;2023-11-19T07:39:24;34.75;;;9.82;;
62268;SDS011;56517;51.634;5.566;2023-11-19T07:40:45;34.67;;;8.23;;
62268;SDS011;56517;51.634;5.566;2023-11-19T07:42:06;32.78;;;8.27;;
62268;SDS011;56517;51.634;5.566;2023-11-19T07:43:27;43.03;;;9.82;;
62268;SDS011;56517;51.634;5.566;2023-11-19T07:44:48;30.70;;;8.90;;
62268;SDS011;56517;51.634;5.566;2023-11-19T07:46:12;31.85;;;9.30;;
62268;SDS011;56517;51.634;5.566;2023-11-19T07:47:35;35.40;;;9.45;;
62268;SDS011;56517;51.634;5.566;2023-11-19T07:48:56;38.22;;;9.75;;
62268;SDS011;56517;51.634;5.566;2023-11-19T07:50:17;31.67;;;10.32;;
62268;SDS011;56517;51.634;5.566;2023-11-19T07:51:40;35.80;;;8.50;;
62268;SDS011;56517;51.634;5.566;2023-11-19T07:53:02;32.92;;;7.97;;
62268;SDS011;56517;51.634;5.566;2023-11-19T07:54:25;24.92;;;8.32;;
62268;SDS011;56517;51.634;5.566;2023-11-19T07:55:46;34.80;;;8.45;;
62268;SDS011;56517;51.634;5.566;2023-11-19T07:57:07;31.65;;;8.95;;
62268;SDS011;56517;51.634;5.566;2023-11-19T07:58:28;36.38;;;8.73;;
62268;SDS011;56517;51.634;5.566;2023-11-19T07:59:49;34.65;;;9.55;;
62268;SDS011;56517;51.634;5.566;2023-11-19T08:01:09;34.72;;;7.97;;
62268;SDS011;56517;51.634;5.566;2023-11-19T08:02:30;26.27;;;8.65;;
62268;SDS011;56517;51.634;5.566;2023-11-19T08:03:51;33.50;;;8.25;;
62268;SDS011;56517;51.634;5.566;2023-11-19T08:05:12;29.13;;;7.68;;
62268;SDS011;56517;51.634;5.566;2023-11-19T08:06:33;33.60;;;9.68;;
62268;SDS011;56517;51.634;5.566;2023-11-19T08:07:54;34.25;;;8.82;;
62268;SDS011;56517;51.634;5.566;2023-11-19T08:09:15;32.58;;;8.90;;
62268;SDS011;56517;51.634;5.566;2023-11-19T08:10:36;35.63;;;8.98;;
62268;SDS011;56517;51.634;5.566;2023-11-19T08:11:57;31.27;;;9.50;;
62268;SDS011;56517;51.634;5.566;2023-11-19T08:13:18;40.60;;;9.30;;